sensor_id;sensor_type;location;lat;lon;timestamp;temperature;humidity
16273;DHT22;8244;50.044;9.006;2023-03-04T00:02:26;-1.20;99.90
16273;DHT22;8244;50.044;9.006;2023-03-04T00:07:28;-1.20;99.90
16273;DHT22;8244;50.044;9.006;2023-03-04T00:12:31;-1.30;99.90
16273;DHT22;8244;50.044;9.006;2023-03-04T00:17:33;-1.30;99.90
16273;DHT22;8244;50.044;9.006;2023-03-04T00:22:34;-1.40;99.90
16273;DHT22;8244;50.044;9.006;2023-03-04T00:27:38;-1.50;99.90
16273;DHT22;8244;50.044;9.006;2023-03-04T00:32:40;-1.50;99.90
16273;DHT22;8244;50.044;9.006;2023-03-04T00:37:42;-1.60;99.90
16273;DHT22;8244;50.044;9.006;2023-03-04T00:42:45;-1.70;99.90
16273;DHT22;8244;50.044;9.006;2023-03-04T00:47:47;-1.70;99.90
16273;DHT22;8244;50.044;9.006;2023-03-04T00:52:48;-1.80;99.90
16273;DHT22;8244;50.044;9.006;2023-03-04T00:57:51;-1.80;99.90
16273;DHT22;8244;50.044;9.006;2023-03-04T01:02:53;-1.70;99.90
16273;DHT22;8244;50.044;9.006;2023-03-04T01:07:55;-1.80;99.90
16273;DHT22;8244;50.044;9.006;2023-03-04T01:12:58;-1.80;99.90
16273;DHT22;8244;50.044;9.006;2023-03-04T01:17:59;-1.80;99.90
16273;DHT22;8244;50.044;9.006;2023-03-04T01:23:01;-1.90;99.90
16273;DHT22;8244;50.044;9.006;2023-03-04T01:28:04;-1.80;99.90
16273;DHT22;8244;50.044;9.006;2023-03-04T01:33:06;-1.80;99.90
16273;DHT22;8244;50.044;9.006;2023-03-04T01:38:07;-1.70;99.90
16273;DHT22;8244;50.044;9.006;2023-03-04T01:43:17;-1.60;99.90
16273;DHT22;8244;50.044;9.006;2023-03-04T01:48:24;-1.50;99.90
16273;DHT22;8244;50.044;9.006;2023-03-04T01:53:27;-1.40;99.90
16273;DHT22;8244;50.044;9.006;2023-03-04T01:58:31;-1.40;99.90
16273;DHT22;8244;50.044;9.006;2023-03-04T02:03:33;-1.30;99.90
16273;DHT22;8244;50.044;9.006;2023-03-04T02:08:35;-1.20;99.90
16273;DHT22;8244;50.044;9.006;2023-03-04T02:13:38;-1.10;99.90
16273;DHT22;8244;50.044;9.006;2023-03-04T02:18:40;-1.00;99.90
16273;DHT22;8244;50.044;9.006;2023-03-04T02:23:45;-1.00;99.90
16273;DHT22;8244;50.044;9.006;2023-03-04T02:28:51;-0.90;99.90
16273;DHT22;8244;50.044;9.006;2023-03-04T02:33:54;-0.80;99.90
16273;DHT22;8244;50.044;9.006;2023-03-04T02:39:01;-0.80;99.90
16273;DHT22;8244;50.044;9.006;2023-03-04T02:44:14;-0.80;99.90
16273;DHT22;8244;50.044;9.006;2023-03-04T02:49:17;-0.70;99.90
16273;DHT22;8244;50.044;9.006;2023-03-04T02:54:21;-0.70;99.90
16273;DHT22;8244;50.044;9.006;2023-03-04T02:59:24;-0.70;99.90
16273;DHT22;8244;50.044;9.006;2023-03-04T03:04:27;-0.60;99.90
16273;DHT22;8244;50.044;9.006;2023-03-04T03:09:28;-0.60;99.90
16273;DHT22;8244;50.044;9.006;2023-03-04T03:14:31;-0.50;99.90
16273;DHT22;8244;50.044;9.006;2023-03-04T03:19:33;-0.50;99.90
16273;DHT22;8244;50.044;9.006;2023-03-04T03:24:35;-0.40;99.90
16273;DHT22;8244;50.044;9.006;2023-03-04T03:29:38;-0.40;99.90
16273;DHT22;8244;50.044;9.006;2023-03-04T03:34:40;-0.40;99.90
16273;DHT22;8244;50.044;9.006;2023-03-04T03:39:42;-0.40;99.90
16273;DHT22;8244;50.044;9.006;2023-03-04T03:44:45;-0.30;99.90
16273;DHT22;8244;50.044;9.006;2023-03-04T03:49:46;-0.30;99.90
16273;DHT22;8244;50.044;9.006;2023-03-04T03:54:48;-0.30;99.90
16273;DHT22;8244;50.044;9.006;2023-03-04T03:59:52;-0.30;99.90
16273;DHT22;8244;50.044;9.006;2023-03-04T04:04:54;-0.30;99.90
16273;DHT22;8244;50.044;9.006;2023-03-04T04:09:55;-0.30;99.90
16273;DHT22;8244;50.044;9.006;2023-03-04T04:14:58;-0.30;99.90
16273;DHT22;8244;50.044;9.006;2023-03-04T04:20:00;-0.30;99.90
16273;DHT22;8244;50.044;9.006;2023-03-04T04:25:02;-0.20;99.90
16273;DHT22;8244;50.044;9.006;2023-03-04T04:30:08;-0.20;99.90
16273;DHT22;8244;50.044;9.006;2023-03-04T04:35:10;-0.10;99.90
16273;DHT22;8244;50.044;9.006;2023-03-04T04:40:12;-0.10;99.90
16273;DHT22;8244;50.044;9.006;2023-03-04T04:45:15;-0.10;99.90
16273;DHT22;8244;50.044;9.006;2023-03-04T04:50:17;0.00;99.90
16273;DHT22;8244;50.044;9.006;2023-03-04T04:55:19;0.00;99.90
16273;DHT22;8244;50.044;9.006;2023-03-04T05:00:22;0.00;99.90
16273;DHT22;8244;50.044;9.006;2023-03-04T05:05:24;0.00;99.90
16273;DHT22;8244;50.044;9.006;2023-03-04T05:10:26;0.00;99.90
16273;DHT22;8244;50.044;9.006;2023-03-04T05:15:29;0.10;99.90
16273;DHT22;8244;50.044;9.006;2023-03-04T05:20:30;0.10;99.90
16273;DHT22;8244;50.044;9.006;2023-03-04T05:25:32;0.10;99.90
16273;DHT22;8244;50.044;9.006;2023-03-04T05:30:36;0.10;99.90
16273;DHT22;8244;50.044;9.006;2023-03-04T05:35:39;0.20;99.90
16273;DHT22;8244;50.044;9.006;2023-03-04T05:40:41;0.20;99.90
16273;DHT22;8244;50.044;9.006;2023-03-04T05:45:45;0.20;99.90
16273;DHT22;8244;50.044;9.006;2023-03-04T05:50:46;0.20;99.90
16273;DHT22;8244;50.044;9.006;2023-03-04T05:55:48;0.20;99.90
16273;DHT22;8244;50.044;9.006;2023-03-04T06:00:51;0.20;99.90
16273;DHT22;8244;50.044;9.006;2023-03-04T06:05:53;0.20;99.90
16273;DHT22;8244;50.044;9.006;2023-03-04T06:10:55;0.20;99.90
16273;DHT22;8244;50.044;9.006;2023-03-04T06:15:59;0.20;99.90
16273;DHT22;8244;50.044;9.006;2023-03-04T06:21:02;0.30;99.90
16273;DHT22;8244;50.044;9.006;2023-03-04T06:26:04;0.30;99.90
16273;DHT22;8244;50.044;9.006;2023-03-04T06:31:10;0.30;99.90
16273;DHT22;8244;50.044;9.006;2023-03-04T06:36:11;0.30;99.90
16273;DHT22;8244;50.044;9.006;2023-03-04T06:41:13;0.30;99.90
16273;DHT22;8244;50.044;9.006;2023-03-04T06:46:17;0.40;99.90
16273;DHT22;8244;50.044;9.006;2023-03-04T06:51:18;0.40;99.90
16273;DHT22;8244;50.044;9.006;2023-03-04T06:56:20;0.50;99.90
16273;DHT22;8244;50.044;9.006;2023-03-04T07:01:26;0.50;99.90
16273;DHT22;8244;50.044;9.006;2023-03-04T07:06:28;0.50;99.90
16273;DHT22;8244;50.044;9.006;2023-03-04T07:11:30;0.60;99.90
16273;DHT22;8244;50.044;9.006;2023-03-04T07:16:33;0.60;99.90
16273;DHT22;8244;50.044;9.006;2023-03-04T07:21:35;0.70;99.90
16273;DHT22;8244;50.044;9.006;2023-03-04T07:26:37;0.70;99.90
16273;DHT22;8244;50.044;9.006;2023-03-04T07:31:40;0.80;99.90
16273;DHT22;8244;50.044;9.006;2023-03-04T07:36:44;0.80;99.90
16273;DHT22;8244;50.044;9.006;2023-03-04T07:41:45;0.80;99.90
16273;DHT22;8244;50.044;9.006;2023-03-04T07:46:48;0.90;99.90
16273;DHT22;8244;50.044;9.006;2023-03-04T07:51:50;1.00;99.90
16273;DHT22;8244;50.044;9.006;2023-03-04T07:56:52;1.10;99.90
16273;DHT22;8244;50.044;9.006;2023-03-04T08:01:55;1.20;99.90
16273;DHT22;8244;50.044;9.006;2023-03-04T08:06:56;1.30;99.90
16273;DHT22;8244;50.044;9.006;2023-03-04T08:11:58;1.40;99.90
16273;DHT22;8244;50.044;9.006;2023-03-04T08:17:01;1.50;99.90
16273;DHT22;8244;50.044;9.006;2023-03-04T08:22:03;1.60;99.90
16273;DHT22;8244;50.044;9.006;2023-03-04T08:27:05;1.70;99.90
16273;DHT22;8244;50.044;9.006;2023-03-04T08:32:08;1.90;99.90
16273;DHT22;8244;50.044;9.006;2023-03-04T08:37:10;2.00;99.90
16273;DHT22;8244;50.044;9.006;2023-03-04T08:42:11;2.10;99.90
16273;DHT22;8244;50.044;9.006;2023-03-04T08:47:14;2.20;99.90
16273;DHT22;8244;50.044;9.006;2023-03-04T08:52:16;2.30;99.90
16273;DHT22;8244;50.044;9.006;2023-03-04T08:57:18;2.40;99.90
16273;DHT22;8244;50.044;9.006;2023-03-04T09:02:21;2.60;99.90
16273;DHT22;8244;50.044;9.006;2023-03-04T09:07:23;2.80;99.90
16273;DHT22;8244;50.044;9.006;2023-03-04T09:12:25;2.90;99.90
16273;DHT22;8244;50.044;9.006;2023-03-04T09:17:29;3.00;99.90
16273;DHT22;8244;50.044;9.006;2023-03-04T09:22:31;3.10;99.90
16273;DHT22;8244;50.044;9.006;2023-03-04T09:27:33;3.30;99.90
16273;DHT22;8244;50.044;9.006;2023-03-04T09:32:36;3.40;99.90
16273;DHT22;8244;50.044;9.006;2023-03-04T09:37:37;3.60;99.90
16273;DHT22;8244;50.044;9.006;2023-03-04T09:42:43;3.70;99.90
16273;DHT22;8244;50.044;9.006;2023-03-04T09:47:50;3.70;99.90
16273;DHT22;8244;50.044;9.006;2023-03-04T09:53:05;3.90;99.90
16273;DHT22;8244;50.044;9.006;2023-03-04T09:58:15;4.00;99.90
16273;DHT22;8244;50.044;9.006;2023-03-04T10:03:26;4.10;99.90
16273;DHT22;8244;50.044;9.006;2023-03-04T10:08:40;4.30;99.90
16273;DHT22;8244;50.044;9.006;2023-03-04T10:13:55;4.50;99.90
16273;DHT22;8244;50.044;9.006;2023-03-04T10:19:06;4.70;99.90
16273;DHT22;8244;50.044;9.006;2023-03-04T10:24:11;5.00;99.90
16273;DHT22;8244;50.044;9.006;2023-03-04T10:29:16;5.20;99.90
16273;DHT22;8244;50.044;9.006;2023-03-04T10:34:19;5.40;99.90
16273;DHT22;8244;50.044;9.006;2023-03-04T10:39:24;5.50;99.90
16273;DHT22;8244;50.044;9.006;2023-03-04T10:44:27;5.70;99.90
16273;DHT22;8244;50.044;9.006;2023-03-04T10:49:30;5.90;99.90
16273;DHT22;8244;50.044;9.006;2023-03-04T10:54:39;6.10;99.90
16273;DHT22;8244;50.044;9.006;2023-03-04T10:59:49;6.20;99.90
16273;DHT22;8244;50.044;9.006;2023-03-04T11:05:16;6.50;99.90
16273;DHT22;8244;50.044;9.006;2023-03-04T11:10:37;6.60;99.90
16273;DHT22;8244;50.044;9.006;2023-03-04T11:15:51;6.80;99.90
16273;DHT22;8244;50.044;9.006;2023-03-04T11:20:54;6.90;99.90
16273;DHT22;8244;50.044;9.006;2023-03-04T11:26:00;6.90;99.90
16273;DHT22;8244;50.044;9.006;2023-03-04T11:31:04;7.00;99.90
16273;DHT22;8244;50.044;9.006;2023-03-04T11:36:20;7.00;99.90
16273;DHT22;8244;50.044;9.006;2023-03-04T11:41:27;7.10;99.90
16273;DHT22;8244;50.044;9.006;2023-03-04T11:52:08;7.30;99.90
16273;DHT22;8244;50.044;9.006;2023-03-04T11:57:22;7.40;99.90
16273;DHT22;8244;50.044;9.006;2023-03-04T12:02:32;7.40;99.90
16273;DHT22;8244;50.044;9.006;2023-03-04T12:07:55;7.40;99.90
16273;DHT22;8244;50.044;9.006;2023-03-04T12:13:26;7.30;99.90
16273;DHT22;8244;50.044;9.006;2023-03-04T12:18:42;7.40;99.90
16273;DHT22;8244;50.044;9.006;2023-03-04T12:24:08;7.40;99.90
16273;DHT22;8244;50.044;9.006;2023-03-04T12:29:20;7.50;99.90
16273;DHT22;8244;50.044;9.006;2023-03-04T12:34:39;7.50;99.90
16273;DHT22;8244;50.044;9.006;2023-03-04T12:40:02;7.70;99.90
16273;DHT22;8244;50.044;9.006;2023-03-04T12:45:14;7.90;99.90
16273;DHT22;8244;50.044;9.006;2023-03-04T12:50:27;8.00;99.90
16273;DHT22;8244;50.044;9.006;2023-03-04T12:55:37;8.20;99.90
16273;DHT22;8244;50.044;9.006;2023-03-04T13:00:47;8.50;99.90
16273;DHT22;8244;50.044;9.006;2023-03-04T13:05:59;8.60;99.90
16273;DHT22;8244;50.044;9.006;2023-03-04T13:11:41;8.50;99.90
16273;DHT22;8244;50.044;9.006;2023-03-04T13:16:44;8.70;99.90
16273;DHT22;8244;50.044;9.006;2023-03-04T13:21:47;8.90;99.90
16273;DHT22;8244;50.044;9.006;2023-03-04T13:26:50;9.00;99.90
16273;DHT22;8244;50.044;9.006;2023-03-04T13:32:00;9.10;99.90
16273;DHT22;8244;50.044;9.006;2023-03-04T13:37:09;9.00;99.90
16273;DHT22;8244;50.044;9.006;2023-03-04T13:42:41;8.90;99.90
16273;DHT22;8244;50.044;9.006;2023-03-04T13:47:45;8.90;99.90
16273;DHT22;8244;50.044;9.006;2023-03-04T13:52:48;9.20;99.90
16273;DHT22;8244;50.044;9.006;2023-03-04T13:57:51;9.40;99.90
16273;DHT22;8244;50.044;9.006;2023-03-04T14:02:53;9.20;99.90
16273;DHT22;8244;50.044;9.006;2023-03-04T14:07:54;9.10;99.90
16273;DHT22;8244;50.044;9.006;2023-03-04T14:12:59;8.90;99.90
16273;DHT22;8244;50.044;9.006;2023-03-04T14:18:03;8.80;99.90
16273;DHT22;8244;50.044;9.006;2023-03-04T14:23:22;8.50;99.90
16273;DHT22;8244;50.044;9.006;2023-03-04T14:28:26;8.50;99.90
16273;DHT22;8244;50.044;9.006;2023-03-04T14:33:28;8.50;99.90
16273;DHT22;8244;50.044;9.006;2023-03-04T14:38:32;8.60;99.90
16273;DHT22;8244;50.044;9.006;2023-03-04T14:43:40;8.40;99.90
16273;DHT22;8244;50.044;9.006;2023-03-04T14:48:48;8.30;99.90
16273;DHT22;8244;50.044;9.006;2023-03-04T14:53:54;8.20;99.90
16273;DHT22;8244;50.044;9.006;2023-03-04T14:58:58;8.00;99.90
16273;DHT22;8244;50.044;9.006;2023-03-04T15:04:02;7.70;99.90
16273;DHT22;8244;50.044;9.006;2023-03-04T15:09:05;7.60;99.90
16273;DHT22;8244;50.044;9.006;2023-03-04T15:14:42;7.70;99.90
16273;DHT22;8244;50.044;9.006;2023-03-04T15:19:44;7.60;99.90
16273;DHT22;8244;50.044;9.006;2023-03-04T15:24:46;7.50;99.90
16273;DHT22;8244;50.044;9.006;2023-03-04T15:29:50;7.40;99.90
16273;DHT22;8244;50.044;9.006;2023-03-04T15:34:55;7.40;99.90
16273;DHT22;8244;50.044;9.006;2023-03-04T15:39:57;7.30;99.90
16273;DHT22;8244;50.044;9.006;2023-03-04T15:45:00;7.30;99.90
16273;DHT22;8244;50.044;9.006;2023-03-04T15:50:02;7.30;99.90
16273;DHT22;8244;50.044;9.006;2023-03-04T15:55:05;7.20;99.90
16273;DHT22;8244;50.044;9.006;2023-03-04T16:00:12;7.20;99.90
16273;DHT22;8244;50.044;9.006;2023-03-04T16:05:14;7.10;99.90
16273;DHT22;8244;50.044;9.006;2023-03-04T16:10:21;7.00;99.90
16273;DHT22;8244;50.044;9.006;2023-03-04T16:15:27;6.80;99.90
16273;DHT22;8244;50.044;9.006;2023-03-04T16:20:29;6.80;99.90
16273;DHT22;8244;50.044;9.006;2023-03-04T16:25:31;6.80;99.90
16273;DHT22;8244;50.044;9.006;2023-03-04T16:30:34;6.70;99.90
16273;DHT22;8244;50.044;9.006;2023-03-04T16:35:36;6.70;99.90
16273;DHT22;8244;50.044;9.006;2023-03-04T16:40:39;6.60;99.90
16273;DHT22;8244;50.044;9.006;2023-03-04T16:45:42;6.60;99.90
16273;DHT22;8244;50.044;9.006;2023-03-04T16:50:45;6.50;99.90
16273;DHT22;8244;50.044;9.006;2023-03-04T16:55:47;6.40;99.90
16273;DHT22;8244;50.044;9.006;2023-03-04T17:00:50;6.40;99.90
16273;DHT22;8244;50.044;9.006;2023-03-04T17:05:52;6.30;99.90
16273;DHT22;8244;50.044;9.006;2023-03-04T17:10:53;6.30;99.90
16273;DHT22;8244;50.044;9.006;2023-03-04T17:15:59;6.20;99.90
16273;DHT22;8244;50.044;9.006;2023-03-04T17:21:02;6.10;99.90
16273;DHT22;8244;50.044;9.006;2023-03-04T17:26:04;6.10;99.90
16273;DHT22;8244;50.044;9.006;2023-03-04T17:31:13;6.00;99.90
16273;DHT22;8244;50.044;9.006;2023-03-04T17:36:17;6.00;99.90
16273;DHT22;8244;50.044;9.006;2023-03-04T17:41:20;6.00;99.90
16273;DHT22;8244;50.044;9.006;2023-03-04T17:46:25;5.90;99.90
16273;DHT22;8244;50.044;9.006;2023-03-04T17:51:31;5.90;99.90
16273;DHT22;8244;50.044;9.006;2023-03-04T17:56:34;5.80;99.90
16273;DHT22;8244;50.044;9.006;2023-03-04T18:01:38;5.80;99.90
16273;DHT22;8244;50.044;9.006;2023-03-04T18:06:40;5.70;99.90
16273;DHT22;8244;50.044;9.006;2023-03-04T18:11:42;5.70;99.90
16273;DHT22;8244;50.044;9.006;2023-03-04T18:16:48;5.60;99.90
16273;DHT22;8244;50.044;9.006;2023-03-04T18:21:50;5.60;99.90
16273;DHT22;8244;50.044;9.006;2023-03-04T18:26:52;5.50;99.90
16273;DHT22;8244;50.044;9.006;2023-03-04T18:31:55;5.50;99.90
16273;DHT22;8244;50.044;9.006;2023-03-04T18:36:56;5.50;99.90
16273;DHT22;8244;50.044;9.006;2023-03-04T18:41:58;5.40;99.90
16273;DHT22;8244;50.044;9.006;2023-03-04T18:47:03;5.40;99.90
16273;DHT22;8244;50.044;9.006;2023-03-04T18:52:06;5.50;99.90
16273;DHT22;8244;50.044;9.006;2023-03-04T18:57:08;5.40;99.90
16273;DHT22;8244;50.044;9.006;2023-03-04T19:02:16;5.40;99.90
16273;DHT22;8244;50.044;9.006;2023-03-04T19:07:20;5.40;99.90
16273;DHT22;8244;50.044;9.006;2023-03-04T19:12:23;5.50;99.90
16273;DHT22;8244;50.044;9.006;2023-03-04T19:17:26;5.50;99.90
16273;DHT22;8244;50.044;9.006;2023-03-04T19:22:32;5.40;99.90
16273;DHT22;8244;50.044;9.006;2023-03-04T19:27:33;5.40;99.90
16273;DHT22;8244;50.044;9.006;2023-03-04T19:32:36;5.40;99.90
16273;DHT22;8244;50.044;9.006;2023-03-04T19:37:38;5.30;99.90
16273;DHT22;8244;50.044;9.006;2023-03-04T19:42:40;5.40;99.90
16273;DHT22;8244;50.044;9.006;2023-03-04T19:47:43;5.40;99.90
16273;DHT22;8244;50.044;9.006;2023-03-04T19:52:45;5.30;99.90
16273;DHT22;8244;50.044;9.006;2023-03-04T19:57:46;5.30;99.90
16273;DHT22;8244;50.044;9.006;2023-03-04T20:02:49;5.30;99.90
16273;DHT22;8244;50.044;9.006;2023-03-04T20:07:51;5.30;99.90
16273;DHT22;8244;50.044;9.006;2023-03-04T20:12:53;5.20;99.90
16273;DHT22;8244;50.044;9.006;2023-03-04T20:17:56;5.20;99.90
16273;DHT22;8244;50.044;9.006;2023-03-04T20:22:58;5.20;99.90
16273;DHT22;8244;50.044;9.006;2023-03-04T20:28:00;5.10;99.90
16273;DHT22;8244;50.044;9.006;2023-03-04T20:33:03;5.10;99.90
16273;DHT22;8244;50.044;9.006;2023-03-04T20:38:04;5.10;99.90
16273;DHT22;8244;50.044;9.006;2023-03-04T20:43:06;5.10;99.90
16273;DHT22;8244;50.044;9.006;2023-03-04T20:48:09;5.10;99.90
16273;DHT22;8244;50.044;9.006;2023-03-04T20:53:11;5.10;99.90
16273;DHT22;8244;50.044;9.006;2023-03-04T20:58:13;5.10;99.90
16273;DHT22;8244;50.044;9.006;2023-03-04T21:03:16;5.10;99.90
16273;DHT22;8244;50.044;9.006;2023-03-04T21:08:18;5.10;99.90
16273;DHT22;8244;50.044;9.006;2023-03-04T21:13:19;5.10;99.90
16273;DHT22;8244;50.044;9.006;2023-03-04T21:18:24;5.10;99.90
16273;DHT22;8244;50.044;9.006;2023-03-04T21:23:26;5.10;99.90
16273;DHT22;8244;50.044;9.006;2023-03-04T21:28:28;5.10;99.90
16273;DHT22;8244;50.044;9.006;2023-03-04T21:33:33;5.10;99.90
16273;DHT22;8244;50.044;9.006;2023-03-04T21:38:35;5.10;99.90
16273;DHT22;8244;50.044;9.006;2023-03-04T21:43:37;5.00;99.90
16273;DHT22;8244;50.044;9.006;2023-03-04T21:48:41;5.00;99.90
16273;DHT22;8244;50.044;9.006;2023-03-04T21:53:44;5.00;99.90
16273;DHT22;8244;50.044;9.006;2023-03-04T21:58:45;5.00;99.90
16273;DHT22;8244;50.044;9.006;2023-03-04T22:03:49;5.00;99.90
16273;DHT22;8244;50.044;9.006;2023-03-04T22:08:52;5.00;99.90
16273;DHT22;8244;50.044;9.006;2023-03-04T22:13:56;5.00;99.90
16273;DHT22;8244;50.044;9.006;2023-03-04T22:18:59;4.90;99.90
16273;DHT22;8244;50.044;9.006;2023-03-04T22:24:01;4.90;99.90
16273;DHT22;8244;50.044;9.006;2023-03-04T22:29:03;4.90;99.90
16273;DHT22;8244;50.044;9.006;2023-03-04T22:34:09;4.90;99.90
16273;DHT22;8244;50.044;9.006;2023-03-04T22:39:12;4.80;99.90
16273;DHT22;8244;50.044;9.006;2023-03-04T22:44:15;4.90;99.90
16273;DHT22;8244;50.044;9.006;2023-03-04T22:49:18;4.80;99.90
16273;DHT22;8244;50.044;9.006;2023-03-04T22:54:19;4.80;99.90
16273;DHT22;8244;50.044;9.006;2023-03-04T22:59:22;4.70;99.90
16273;DHT22;8244;50.044;9.006;2023-03-04T23:04:25;4.70;99.90
16273;DHT22;8244;50.044;9.006;2023-03-04T23:09:27;4.70;99.90
16273;DHT22;8244;50.044;9.006;2023-03-04T23:14:29;4.70;99.90
16273;DHT22;8244;50.044;9.006;2023-03-04T23:19:32;4.70;99.90
16273;DHT22;8244;50.044;9.006;2023-03-04T23:24:33;4.70;99.90
16273;DHT22;8244;50.044;9.006;2023-03-04T23:29:36;4.70;99.90
16273;DHT22;8244;50.044;9.006;2023-03-04T23:34:39;4.60;99.90
16273;DHT22;8244;50.044;9.006;2023-03-04T23:39:41;4.60;99.90
16273;DHT22;8244;50.044;9.006;2023-03-04T23:44:42;4.60;99.90
16273;DHT22;8244;50.044;9.006;2023-03-04T23:49:45;4.60;99.90
16273;DHT22;8244;50.044;9.006;2023-03-04T23:54:47;4.50;99.90
16273;DHT22;8244;50.044;9.006;2023-03-04T23:59:49;4.50;99.90
